createdAt,value
2018-11-04T00:00:39.461Z,18.14
2018-11-04T00:01:39.227Z,18.04
2018-11-04T00:02:39.429Z,17.76
2018-11-04T00:03:39.160Z,17.38
2018-11-04T00:04:39.403Z,17.19
2018-11-04T00:05:39.132Z,17
2018-11-04T00:06:39.121Z,17.1
2018-11-04T00:07:39.106Z,16.81
2018-11-04T00:08:39.351Z,17.1
2018-11-04T00:09:39.337Z,16.91
2018-11-04T00:10:39.327Z,17.1
2018-11-04T00:11:39.053Z,17.29
2018-11-04T00:12:39.040Z,16.72
2018-11-04T00:13:39.028Z,16.81
2018-11-04T00:14:39.277Z,16.81
2018-11-04T00:15:39.259Z,16.72
2018-11-04T00:16:39.244Z,16.62
2018-11-04T00:17:39.232Z,16.81
2018-11-04T00:18:39.223Z,16.91
2018-11-04T00:19:39.209Z,17.19
2018-11-04T00:20:38.936Z,17.29
2018-11-04T00:21:39.182Z,17.95
2018-11-04T00:22:38.912Z,17.66
2018-11-04T00:23:39.153Z,17.76
2018-11-04T00:24:39.142Z,18.14
2018-11-04T00:25:39.128Z,18.71
2018-11-04T00:26:39.121Z,18.52
2018-11-04T00:27:38.845Z,18.99
2018-11-04T00:28:39.091Z,18.99
2018-11-04T00:29:39.147Z,19.18
2018-11-04T00:30:39.064Z,18.8
2018-11-04T00:31:38.794Z,18.62
2018-11-04T00:32:39.040Z,18.33
2018-11-04T00:33:39.022Z,18.04
2018-11-04T00:34:38.757Z,17.66
2018-11-04T00:35:38.739Z,17
2018-11-04T00:36:38.983Z,16.99
2018-11-04T00:37:38.975Z,16.8
2018-11-04T00:38:38.958Z,16.81
2018-11-04T00:39:38.692Z,16.43
2018-11-04T00:40:38.931Z,16.05
2018-11-04T00:41:38.918Z,16.05
2018-11-04T00:42:38.654Z,15.85
2018-11-04T00:43:38.634Z,15.85
2018-11-04T00:44:38.881Z,15.37
2018-11-04T00:45:39.049Z,14.81
2018-11-04T00:46:38.868Z,14.43
2018-11-04T00:47:38.840Z,14.43
2018-11-04T00:48:38.835Z,13.67
2018-11-04T00:49:38.556Z,13.77
2018-11-04T00:50:38.801Z,14.15
2018-11-04T00:51:38.533Z,14.15
2018-11-04T00:52:38.777Z,14.81
2018-11-04T00:53:38.766Z,14.91
2018-11-04T00:54:38.497Z,14.81
2018-11-04T00:55:38.480Z,14.25
2018-11-04T00:56:38.720Z,13.96
2018-11-04T00:57:51.186Z,13.1
2018-11-04T00:58:38.694Z,13
2018-11-04T00:59:38.682Z,12.72
2018-11-04T01:00:38.671Z,12.43
2018-11-04T01:01:38.889Z,12.62
2018-11-04T01:02:38.385Z,12.82
2018-11-04T01:03:38.373Z,12.62
2018-11-04T01:04:38.616Z,12.43
2018-11-04T01:05:38.603Z,12.43
2018-11-04T01:06:38.590Z,12.63
2018-11-04T01:07:38.320Z,12.25
2018-11-04T01:08:38.565Z,12.25
2018-11-04T01:09:38.553Z,11.87
2018-11-04T01:10:38.538Z,11.68
2018-11-04T01:11:38.529Z,11.49
2018-11-04T01:12:38.254Z,11.68
2018-11-04T01:13:38.503Z,11.4
2018-11-04T01:14:38.484Z,11.21
2018-11-04T01:15:38.471Z,11.4
2018-11-04T01:16:38.460Z,11.3
2018-11-04T01:17:38.448Z,11.58
2018-11-04T01:18:38.174Z,11.68
2018-11-04T01:19:38.420Z,11.58
2018-11-04T01:20:38.405Z,11.77
2018-11-04T01:21:38.392Z,12.16
2018-11-04T01:22:38.386Z,12.82
2018-11-04T01:23:38.113Z,13.01
2018-11-04T01:24:38.550Z,13.39
2018-11-04T01:25:38.342Z,13.39
2018-11-04T01:26:38.329Z,12.82
2018-11-04T01:27:38.317Z,13.29
2018-11-04T01:28:38.304Z,13.77
2018-11-04T01:29:38.288Z,13.87
2018-11-04T01:30:38.019Z,13.87
2018-11-04T01:31:38.007Z,13.96
2018-11-04T01:32:37.993Z,13.96
2018-11-04T01:33:37.980Z,13.96
2018-11-04T01:34:38.225Z,13.77
2018-11-04T01:35:38.211Z,13.96
2018-11-04T01:36:38.201Z,13.77
2018-11-04T01:37:38.185Z,13.58
2018-11-04T01:38:38.173Z,13.68
2018-11-04T01:39:38.160Z,13.48
2018-11-04T01:40:37.891Z,13.2
2018-11-04T01:41:38.139Z,13.39
2018-11-04T01:42:38.119Z,13.2
2018-11-04T01:43:37.853Z,13.29
2018-11-04T01:44:37.836Z,13.2
2018-11-04T01:45:37.824Z,13.1
2018-11-04T01:46:38.068Z,13.39
2018-11-04T01:47:37.797Z,13.77
2018-11-04T01:48:38.041Z,14.06
2018-11-04T01:49:37.772Z,14.34
2018-11-04T01:50:37.757Z,14.25
2018-11-04T01:51:38.003Z,14.34
2018-11-04T01:52:37.989Z,14.34
2018-11-04T01:53:37.719Z,14.81
2018-11-04T01:54:37.963Z,14.81
2018-11-04T01:55:37.951Z,15.39
2018-11-04T01:56:37.680Z,15.48
2018-11-04T01:57:37.667Z,15.58
2018-11-04T01:58:37.909Z,15.48
2018-11-04T01:59:37.899Z,15.86
2018-11-04T02:00:37.627Z,16.52
2018-11-04T02:01:37.873Z,16.24
2018-11-04T02:02:37.860Z,17
2018-11-04T02:03:37.588Z,17.29
2018-11-04T02:04:37.831Z,17.29
2018-11-04T02:05:37.819Z,17.85
2018-11-04T02:06:37.549Z,17.76
2018-11-04T02:07:37.536Z,18.04
2018-11-04T02:08:37.783Z,18.33
2018-11-04T02:09:37.766Z,18.99
2018-11-04T02:10:37.754Z,19.09
2018-11-04T02:11:37.483Z,19.56
2018-11-04T02:12:37.472Z,19.76
2018-11-04T02:13:37.713Z,19.85
2018-11-04T02:14:37.444Z,20.04
2018-11-04T02:15:37.689Z,20.14
2018-11-04T02:16:37.418Z,20.23
2018-11-04T02:17:37.665Z,20.14
2018-11-04T02:18:37.650Z,20.04
2018-11-04T02:19:37.638Z,20.04
2018-11-04T02:20:37.628Z,20.04
2018-11-04T02:21:37.611Z,19.56
2018-11-04T02:22:37.597Z,19.09
2018-11-04T02:23:37.329Z,19.18
2018-11-04T02:24:37.314Z,18.99
2018-11-04T02:25:37.306Z,18.99
2018-11-04T02:26:37.544Z,18.9
2018-11-04T02:27:37.532Z,20.14
2018-11-04T02:28:37.526Z,20.42
2018-11-04T02:29:37.254Z,20.8
2018-11-04T02:30:37.506Z,21.18
2018-11-04T02:31:37.226Z,21.08
2018-11-04T02:32:37.216Z,21.18
2018-11-04T02:33:37.457Z,21.37
2018-11-04T02:34:37.445Z,21.28
2018-11-04T02:35:37.429Z,21.47
2018-11-04T02:36:37.421Z,21.56
2018-11-04T02:37:37.147Z,22.03
2018-11-04T02:38:37.132Z,21.75
2018-11-04T02:39:37.121Z,22.13
2018-11-04T02:40:37.112Z,22.32
2018-11-04T02:41:37.094Z,22.13
2018-11-04T02:42:37.345Z,22.8
2018-11-04T02:43:37.069Z,23.55
2018-11-04T02:44:37.316Z,24.12
2018-11-04T02:45:37.300Z,24.22
2018-11-04T02:46:37.338Z,24.12
2018-11-04T02:47:37.018Z,24.22
2018-11-04T02:48:37.006Z,23.93
2018-11-04T02:49:37.254Z,24.41
2018-11-04T02:50:37.236Z,24.51
2018-11-04T02:51:37.231Z,24.22
2018-11-04T02:52:36.953Z,24.22
2018-11-04T02:53:37.199Z,23.55
2018-11-04T02:54:37.184Z,23.65
2018-11-04T02:55:37.169Z,23.27
2018-11-04T02:56:36.904Z,23.74
2018-11-04T02:57:37.153Z,23.65
2018-11-04T02:58:37.197Z,24.32
2018-11-04T02:59:36.861Z,24.41
2018-11-04T03:00:37.107Z,24.22
2018-11-04T03:01:36.836Z,23.55
2018-11-04T03:02:37.079Z,22.89
2018-11-04T03:03:37.071Z,22.8
2018-11-04T03:04:37.061Z,22.7
2018-11-04T03:05:37.049Z,22.13
2018-11-04T03:06:37.030Z,22.03
2018-11-04T03:07:36.759Z,21.84
2018-11-04T03:08:37.006Z,21.84
2018-11-04T03:09:36.991Z,21.75
2018-11-04T03:10:36.721Z,21.94
2018-11-04T03:11:36.710Z,21.84
2018-11-04T03:12:36.952Z,22.03
2018-11-04T03:13:36.685Z,22.22
2018-11-04T03:14:36.928Z,22.13
2018-11-04T03:15:36.915Z,22.03
2018-11-04T03:16:36.907Z,22.41
2018-11-04T03:17:36.899Z,22.89
2018-11-04T03:18:36.876Z,22.99
2018-11-04T03:19:36.605Z,22.99
2018-11-04T03:20:36.851Z,22.8
2018-11-04T03:21:36.578Z,23.18
2018-11-04T03:22:36.568Z,22.89
2018-11-04T03:23:36.552Z,22.6
2018-11-04T03:24:36.563Z,22.7
2018-11-04T03:25:36.786Z,22.32
2018-11-04T03:26:36.773Z,22.41
2018-11-04T03:27:36.502Z,22.22
2018-11-04T03:28:36.758Z,22.22
2018-11-04T03:29:36.477Z,22.7
2018-11-04T03:30:36.728Z,23.19
2018-11-04T03:31:36.714Z,23.65
2018-11-04T03:32:36.699Z,23.36
2018-11-04T03:33:36.684Z,23.46
2018-11-04T03:34:36.674Z,23.93
2018-11-04T03:35:36.656Z,23.55
2018-11-04T03:36:36.389Z,23.08
2018-11-04T03:37:36.373Z,22.8
2018-11-04T03:38:36.622Z,22.32
2018-11-04T03:39:36.351Z,22.24
2018-11-04T03:40:36.336Z,21.86
2018-11-04T03:41:36.584Z,22.32
2018-11-04T03:42:36.569Z,21.86
2018-11-04T03:43:36.298Z,21.86
2018-11-04T03:44:36.540Z,21.19
2018-11-04T03:45:36.273Z,21.28
2018-11-04T03:46:36.263Z,20.81
2018-11-04T03:47:36.510Z,20.72
2018-11-04T03:48:36.493Z,20.14
2018-11-04T03:49:36.480Z,20.34
2018-11-04T03:50:36.468Z,20.14
2018-11-04T03:51:36.196Z,20.53
2018-11-04T03:52:36.440Z,21.47
2018-11-04T03:53:36.434Z,21.76
2018-11-04T03:54:36.418Z,22.05
2018-11-04T03:55:36.433Z,23
2018-11-04T03:56:36.394Z,22.9
2018-11-04T03:57:36.377Z,23.93
2018-11-04T03:58:36.364Z,23.85
2018-11-04T03:59:36.355Z,24.12
2018-11-04T04:00:36.347Z,24.41
2018-11-04T04:01:36.329Z,24.41
2018-11-04T04:02:36.060Z,23.65
2018-11-04T04:03:36.047Z,23.55
2018-11-04T04:04:36.301Z,23.46
2018-11-04T04:05:36.019Z,22.51
2018-11-04T04:06:36.008Z,22.13
2018-11-04T04:07:35.993Z,21.75
2018-11-04T04:08:36.241Z,21.94
2018-11-04T04:09:36.226Z,21.56
2018-11-04T04:10:36.212Z,21.75
2018-11-04T04:11:35.947Z,21.66
2018-11-04T04:12:36.191Z,21.37
2018-11-04T04:13:36.178Z,21.08
2018-11-04T04:14:36.162Z,20.7
2018-11-04T04:15:36.146Z,20.42
2018-11-04T04:16:35.879Z,20.14
2018-11-04T04:17:36.124Z,19.76
2018-11-04T04:18:36.112Z,19.47
2018-11-04T04:19:35.842Z,19.48
2018-11-04T04:20:36.088Z,19.47
2018-11-04T04:21:36.074Z,19.29
2018-11-04T04:22:36.062Z,19.2
2018-11-04T04:23:35.791Z,19.01
2018-11-04T04:24:36.034Z,19.48
2018-11-04T04:25:35.765Z,19.76
2018-11-04T04:26:36.014Z,19.95
2018-11-04T04:27:35.997Z,19.67
2018-11-04T04:28:35.984Z,20.05
2018-11-04T04:29:35.971Z,19.86
2018-11-04T04:30:35.961Z,19.95
2018-11-04T04:31:35.953Z,20.24
2018-11-04T04:32:35.940Z,20.24
2018-11-04T04:33:35.923Z,20.62
2018-11-04T04:34:35.930Z,20.72
2018-11-04T04:35:35.640Z,21
2018-11-04T04:36:35.888Z,21.19
2018-11-04T04:37:35.874Z,21.38
2018-11-04T04:38:35.603Z,21.86
2018-11-04T04:39:35.847Z,21.76
2018-11-04T04:40:35.578Z,22.05
2018-11-04T04:41:35.823Z,22.05
2018-11-04T04:42:35.553Z,21.76
2018-11-04T04:43:35.796Z,21.86
2018-11-04T04:44:35.526Z,21.57
2018-11-04T04:45:35.774Z,21.95
2018-11-04T04:46:35.756Z,22.24
2018-11-04T04:47:35.490Z,22.9
2018-11-04T04:48:35.477Z,23.28
2018-11-04T04:49:35.729Z,23.66
2018-11-04T04:50:35.710Z,23.66
2018-11-04T04:51:35.714Z,23.28
2018-11-04T04:52:35.687Z,23.94
2018-11-04T04:53:35.413Z,23.75
2018-11-04T04:54:35.402Z,23.75
2018-11-04T04:55:35.660Z,23.66
2018-11-04T04:56:35.377Z,24.13
2018-11-04T04:57:35.369Z,23.94
2018-11-04T04:58:35.352Z,23.85
2018-11-04T04:59:35.608Z,24.23
2018-11-04T05:00:35.586Z,24.23
2018-11-04T05:01:35.575Z,24.33
2018-11-04T05:02:35.561Z,24.71
2018-11-04T05:03:35.292Z,25.37
2018-11-04T05:04:35.280Z,25.46
2018-11-04T05:05:35.526Z,25.37
2018-11-04T05:06:35.255Z,25.18
2018-11-04T05:07:35.241Z,25.27
2018-11-04T05:08:35.489Z,25.27
2018-11-04T05:09:35.479Z,25.18
2018-11-04T05:10:35.461Z,25.27
2018-11-04T05:11:35.460Z,25.27
2018-11-04T05:12:35.446Z,25.37
2018-11-04T05:13:35.428Z,25.46
2018-11-04T05:14:35.421Z,25.37
2018-11-04T05:15:35.400Z,25.37
2018-11-04T05:16:35.397Z,25.27
2018-11-04T05:17:35.382Z,25.94
2018-11-04T05:18:35.361Z,26.04
2018-11-04T05:19:35.365Z,26.13
2018-11-04T05:20:35.081Z,25.85
2018-11-04T05:21:35.067Z,26.42
2018-11-04T05:22:35.311Z,26.42
2018-11-04T05:23:35.301Z,26.13
2018-11-04T05:24:35.289Z,26.04
2018-11-04T05:25:35.018Z,25.46
2018-11-04T05:26:35.031Z,25.27
2018-11-04T05:27:35.259Z,25.09
2018-11-04T05:28:35.237Z,24.61
2018-11-04T05:29:34.972Z,24.42
2018-11-04T05:30:35.211Z,24.13
2018-11-04T05:31:35.205Z,23.85
2018-11-04T05:32:35.208Z,24.23
2018-11-04T05:33:34.920Z,24.23
2018-11-04T05:34:35.170Z,23.85
2018-11-04T05:35:35.153Z,23.66
2018-11-04T05:36:35.137Z,23.75
2018-11-04T05:37:34.871Z,23.85
2018-11-04T05:38:34.863Z,23.75
2018-11-04T05:39:34.845Z,24.33
2018-11-04T05:40:35.091Z,24.61
2018-11-04T05:41:35.076Z,24.71
2018-11-04T05:42:34.808Z,25.27
2018-11-04T05:43:35.051Z,25.56
2018-11-04T05:44:35.038Z,26.13
2018-11-04T05:45:34.770Z,25.94
2018-11-04T05:46:34.758Z,25.94
2018-11-04T05:47:35.005Z,25.65
2018-11-04T05:48:34.991Z,25.65
2018-11-04T05:49:34.978Z,25.46
2018-11-04T05:50:34.709Z,25.94
2018-11-04T05:51:34.964Z,25.94
2018-11-04T05:52:34.943Z,26.32
2018-11-04T05:53:34.671Z,26.42
2018-11-04T05:54:34.918Z,26.13
2018-11-04T05:55:34.910Z,25.94
2018-11-04T05:56:34.634Z,25.46
2018-11-04T05:57:34.629Z,25.37
2018-11-04T05:58:34.871Z,25.09
2018-11-04T05:59:34.854Z,24.61
2018-11-04T06:00:34.862Z,24.61
2018-11-04T06:01:34.836Z,25.27
2018-11-04T06:02:34.561Z,25.09
2018-11-04T06:03:34.806Z,24.61
2018-11-04T06:04:34.538Z,24.9
2018-11-04T06:05:34.524Z,24.61
2018-11-04T06:06:34.770Z,24.71
2018-11-04T06:07:34.759Z,24.61
2018-11-04T06:08:34.490Z,24.8
2018-11-04T06:09:34.478Z,25.09
2018-11-04T06:10:34.463Z,25.37
2018-11-04T06:11:34.711Z,25.18
2018-11-04T06:12:34.704Z,25.46
2018-11-04T06:13:34.685Z,25.18
2018-11-04T06:14:34.675Z,25.56
2018-11-04T06:15:34.401Z,26.04
2018-11-04T06:16:34.646Z,25.94
2018-11-04T06:17:34.635Z,25.37
2018-11-04T06:18:34.623Z,25.65
2018-11-04T06:19:34.465Z,25.27
2018-11-04T06:20:34.342Z,25.46
2018-11-04T06:21:34.328Z,25.94
2018-11-04T06:22:34.573Z,26.23
2018-11-04T06:23:34.568Z,26.89
2018-11-04T06:24:34.552Z,26.7
2018-11-04T06:25:34.545Z,26.23
2018-11-04T06:26:34.526Z,26.51
2018-11-04T06:27:34.510Z,26.42
2018-11-04T06:28:34.242Z,26.51
2018-11-04T06:29:34.488Z,26.32
2018-11-04T06:30:34.482Z,26.51
2018-11-04T06:31:34.464Z,27.08
2018-11-04T06:32:34.450Z,27.18
2018-11-04T06:33:34.438Z,27.27
2018-11-04T06:34:34.189Z,27.27
2018-11-04T06:35:34.156Z,27.08
2018-11-04T06:36:34.401Z,27.37
2018-11-04T06:37:34.389Z,27.37
2018-11-04T06:38:34.119Z,27.18
2018-11-04T06:39:34.107Z,27.75
2018-11-04T06:40:34.352Z,28.71
2018-11-04T06:41:34.340Z,28.7
2018-11-04T06:42:34.327Z,28.98
2018-11-04T06:43:34.061Z,28.89
2018-11-04T06:44:34.303Z,28.89
2018-11-04T06:45:34.034Z,28.98
2018-11-04T06:46:34.022Z,28.98
2018-11-04T06:47:34.473Z,29.17
2018-11-04T06:48:34.253Z,29.36
2018-11-04T06:49:34.242Z,29.74
2018-11-04T06:50:34.228Z,29.36
2018-11-04T06:51:34.217Z,29.75
2018-11-04T06:52:33.948Z,29.84
2018-11-04T06:53:34.191Z,30.22
2018-11-04T06:54:33.946Z,31.26
2018-11-04T06:55:34.170Z,32.03
2018-11-04T06:56:34.156Z,32.5
2018-11-04T06:57:34.141Z,32.69
2018-11-04T06:58:34.137Z,32.59
2018-11-04T06:59:34.120Z,32.78
2018-11-04T07:00:34.108Z,32.8
2018-11-04T07:01:34.100Z,32.88
2018-11-04T07:02:34.083Z,33.07
2018-11-04T07:03:33.815Z,33.26
2018-11-04T07:04:34.068Z,33.94
2018-11-04T07:05:34.046Z,34.51
2018-11-04T07:06:34.036Z,34.61
2018-11-04T07:07:34.024Z,35.46
2018-11-04T07:08:33.754Z,35.27
2018-11-04T07:09:34.006Z,35.35
2018-11-04T07:10:33.996Z,35.16
2018-11-04T07:11:33.975Z,35.17
2018-11-04T07:12:33.964Z,34.51
2018-11-04T07:13:33.999Z,34.51
2018-11-04T07:14:33.681Z,34.61
2018-11-04T07:15:33.925Z,34.7
2018-11-04T07:16:33.915Z,34.8
2018-11-04T07:17:33.903Z,34.7
2018-11-04T07:18:33.632Z,34.7
2018-11-04T07:19:33.876Z,34.8
2018-11-04T07:20:33.862Z,34.42
2018-11-04T07:21:33.856Z,33.94
2018-11-04T07:22:33.850Z,34.03
2018-11-04T07:23:33.827Z,34.03
2018-11-04T07:24:33.558Z,34.32
2018-11-04T07:25:33.930Z,34.7
2018-11-04T07:26:33.792Z,35.56
2018-11-04T07:27:33.783Z,37.18
2018-11-04T07:28:33.828Z,37.93
2018-11-04T07:29:33.500Z,38.7
2018-11-04T07:30:33.744Z,39.26
2018-11-04T07:31:33.733Z,40.12
2018-11-04T07:32:33.463Z,40.69
2018-11-04T07:33:33.705Z,41.46
2018-11-04T07:34:33.696Z,42.02
2018-11-04T07:35:33.684Z,43.35
2018-11-04T07:36:33.673Z,43.73
2018-11-04T07:37:33.670Z,44.4
2018-11-04T07:38:33.394Z,44.21
2018-11-04T07:39:33.640Z,44.49
2018-11-04T07:40:33.369Z,44.87
2018-11-04T07:41:33.358Z,45.73
2018-11-04T07:42:33.604Z,46.4
2018-11-04T07:43:33.591Z,46.3
2018-11-04T07:44:33.581Z,46.11
2018-11-04T07:45:33.310Z,46.11
2018-11-04T07:46:33.300Z,46.49
2018-11-04T07:47:33.554Z,46.42
2018-11-04T07:48:33.532Z,46.49
2018-11-04T07:49:33.525Z,46.3
2018-11-04T07:50:33.265Z,46.51
2018-11-04T07:51:33.287Z,46.61
2018-11-04T07:52:33.489Z,47.28
2018-11-04T07:53:33.474Z,48.23
2018-11-04T07:54:33.204Z,49.37
2018-11-04T07:55:33.451Z,50.23
2018-11-04T07:56:33.181Z,52.22
2018-11-04T07:57:33.172Z,52.41
2018-11-04T07:58:33.420Z,52.41
2018-11-04T07:59:33.402Z,52.61
2018-11-04T08:00:33.399Z,52.51
2018-11-04T08:01:33.390Z,52.8
2018-11-04T08:02:33.113Z,53.27
2018-11-04T08:03:33.554Z,53.65
2018-11-04T08:04:33.089Z,52.7
2018-11-04T08:05:33.079Z,52.61
2018-11-04T08:06:33.323Z,52.7
2018-11-04T08:07:33.053Z,52.89
2018-11-04T08:08:33.043Z,52.98
2018-11-04T08:09:33.296Z,53.36
2018-11-04T08:10:33.283Z,53.46
2018-11-04T08:11:33.012Z,53.36
2018-11-04T08:12:33.003Z,52.8
2018-11-04T08:13:33.131Z,52.41
2018-11-04T08:14:33.232Z,52.53
2018-11-04T08:15:33.222Z,53.67
2018-11-04T08:16:32.952Z,55.2
2018-11-04T08:17:33.197Z,57.77
2018-11-04T08:18:33.185Z,60.15
2018-11-04T08:19:33.178Z,61
2018-11-04T08:20:32.907Z,61.48
2018-11-04T08:21:33.268Z,61.86
2018-11-04T08:22:32.884Z,64.65
2018-11-04T08:23:32.873Z,65.13
2018-11-04T08:24:33.121Z,67.41
2018-11-04T08:25:33.108Z,68.08
2018-11-04T08:26:33.101Z,68.56
2018-11-04T08:27:33.230Z,68.84
2018-11-04T08:28:32.826Z,69.23
2018-11-04T08:29:33.065Z,70.84
2018-11-04T08:30:32.799Z,71.13
2018-11-04T08:31:32.787Z,71.42
2018-11-04T08:32:32.777Z,72.12
2018-11-04T08:33:32.769Z,72.5
2018-11-04T08:34:33.016Z,73.26
2018-11-04T08:35:32.744Z,75.16
2018-11-04T08:36:32.745Z,76.4
2018-11-04T08:37:32.981Z,76.79
2018-11-04T08:38:32.973Z,78.59
2018-11-04T08:39:32.989Z,79.55
2018-11-04T08:40:33.409Z,81.55
2018-11-04T08:41:32.938Z,82.41
2018-11-04T08:42:32.933Z,82.89
2018-11-04T08:43:32.921Z,83.07
2018-11-04T08:44:32.910Z,84.5
2018-11-04T08:45:33.020Z,85.08
2018-11-04T08:46:32.888Z,86.6
2018-11-04T08:47:32.893Z,86.98
2018-11-04T08:48:32.610Z,85.55
2018-11-04T08:49:32.914Z,86.69
2018-11-04T08:50:32.590Z,88.03
2018-11-04T08:51:32.660Z,87.93
2018-11-04T08:52:32.647Z,86.6
2018-11-04T08:53:32.910Z,86.03
2018-11-04T08:54:32.549Z,85.84
2018-11-04T08:55:32.807Z,86.03
2018-11-04T08:56:32.533Z,85.74
2018-11-04T08:57:32.784Z,85.36
2018-11-04T08:58:32.509Z,85.74
2018-11-04T08:59:32.497Z,85.93
2018-11-04T09:00:32.492Z,88.36
2018-11-04T09:01:32.741Z,88.36
2018-11-04T09:02:32.726Z,89.4
2018-11-04T09:03:32.459Z,90.26
2018-11-04T09:04:32.705Z,91.13
2018-11-04T09:05:32.438Z,91.22
2018-11-04T09:06:32.547Z,91.31
2018-11-04T09:07:32.679Z,91.31
2018-11-04T09:08:32.673Z,91.31
2018-11-04T09:09:32.401Z,91.03
2018-11-04T09:10:32.389Z,91.98
2018-11-04T09:11:32.636Z,91.31
2018-11-04T09:12:32.635Z,91.69
2018-11-04T09:13:32.621Z,91.88
2018-11-04T09:14:32.614Z,92.55
2018-11-04T09:15:32.340Z,92.93
2018-11-04T09:16:32.593Z,92.74
2018-11-04T09:17:32.586Z,93.7
2018-11-04T09:18:32.570Z,94.08
2018-11-04T09:19:32.304Z,94.27
2018-11-04T09:20:32.555Z,95.12
2018-11-04T09:21:32.683Z,95.41
2018-11-04T09:22:32.357Z,96.36
2018-11-04T09:23:32.697Z,95.84
2018-11-04T09:24:32.511Z,96.56
2018-11-04T09:25:32.507Z,97.94
2018-11-04T09:26:32.495Z,99.37
2018-11-04T09:27:32.485Z,99.18
2018-11-04T09:28:32.476Z,98.7
2018-11-04T09:29:32.206Z,98.22
2018-11-04T09:30:32.200Z,99.99
2018-11-04T09:31:32.448Z,99.56
2018-11-04T09:32:32.440Z,98.51
2018-11-04T09:33:32.170Z,99.08
2018-11-04T09:34:32.223Z,98.61
2018-11-04T09:35:32.872Z,99.99
2018-11-04T09:36:32.744Z,99.99
2018-11-04T09:37:32.394Z,99.99
2018-11-04T09:38:32.125Z,99.99
2018-11-04T09:39:32.113Z,99.99
2018-11-04T09:40:32.105Z,99.99
2018-11-04T09:41:32.355Z,99.99
2018-11-04T09:42:32.345Z,99.99
2018-11-04T09:43:32.077Z,99.99
2018-11-04T09:44:32.068Z,99.37
2018-11-04T09:45:32.317Z,99.37
2018-11-04T09:46:32.310Z,98.13
2018-11-04T09:47:32.041Z,98.42
2018-11-04T09:48:32.036Z,97.08
2018-11-04T09:49:32.279Z,97.75
2018-11-04T09:50:32.270Z,97.85
2018-11-04T09:51:32.005Z,99.66
2018-11-04T09:52:31.996Z,99.66
2018-11-04T09:53:32.247Z,99.99
2018-11-04T09:54:31.974Z,99.99
2018-11-04T09:55:32.227Z,99.99
2018-11-04T09:56:32.374Z,99.99
2018-11-04T09:57:32.208Z,99.99
2018-11-04T09:58:32.200Z,99.99
2018-11-04T09:59:32.194Z,99.99
2018-11-04T10:00:32.179Z,99.99
2018-11-04T10:01:31.914Z,99.99
2018-11-04T10:02:32.163Z,99.99
2018-11-04T10:03:31.902Z,99.99
2018-11-04T10:04:31.895Z,99.99
2018-11-04T10:05:32.139Z,99.99
2018-11-04T10:06:32.128Z,99.99
2018-11-04T10:07:31.864Z,99.99
2018-11-04T10:08:32.109Z,99.99
2018-11-04T10:09:32.102Z,99.99
2018-11-04T10:10:32.092Z,99.99
2018-11-04T10:11:32.086Z,99.99
2018-11-04T10:12:32.080Z,99.99
2018-11-04T10:13:32.388Z,99.99
2018-11-04T10:14:32.059Z,99.99
2018-11-04T10:15:32.049Z,99.99
2018-11-04T10:16:32.043Z,99.99
2018-11-04T10:17:32.032Z,99.99
2018-11-04T10:18:32.026Z,99.99
2018-11-04T10:19:32.351Z,99.99
2018-11-04T10:20:33.105Z,99.99
2018-11-04T10:21:31.742Z,99.99
2018-11-04T10:22:31.990Z,99.99
2018-11-04T10:23:31.982Z,99.99
2018-11-04T10:24:31.973Z,99.99
2018-11-04T10:25:31.708Z,99.99
2018-11-04T10:26:31.959Z,99.99
2018-11-04T10:27:31.948Z,99.99
2018-11-04T10:28:31.939Z,99.99
2018-11-04T10:29:31.675Z,99.99
2018-11-04T10:30:32.185Z,99.99
2018-11-04T10:31:31.657Z,99.99
2018-11-04T10:32:31.911Z,99.99
2018-11-04T10:33:31.903Z,99.99
2018-11-04T10:34:31.630Z,99.99
2018-11-04T10:35:31.879Z,99.99
2018-11-04T10:36:31.878Z,99.99
2018-11-04T10:37:31.606Z,99.99
2018-11-04T10:38:31.855Z,99.99
2018-11-04T10:39:31.852Z,99.99
2018-11-04T10:40:31.582Z,99.99
2018-11-04T10:41:31.571Z,99.99
2018-11-04T10:42:31.931Z,99.99
2018-11-04T10:43:31.815Z,99.99
2018-11-04T10:44:31.546Z,99.99
2018-11-04T10:45:31.794Z,99.99
2018-11-04T10:46:31.784Z,99.99
2018-11-04T10:47:31.522Z,99.99
2018-11-04T10:48:31.513Z,99.99
2018-11-04T10:49:32.112Z,99.99
2018-11-04T10:50:31.756Z,99.99
2018-11-04T10:51:31.489Z,99.99
2018-11-04T10:52:31.482Z,99.99
2018-11-04T10:53:31.732Z,99.99
2018-11-04T10:54:31.722Z,99.99
2018-11-04T10:55:31.504Z,99.99
2018-11-04T10:56:31.707Z,99.99
2018-11-04T10:57:31.441Z,99.99
2018-11-04T10:58:31.691Z,99.99
2018-11-04T10:59:31.681Z,99.99
2018-11-04T11:00:31.417Z,99.99
2018-11-04T11:01:31.409Z,99.99
2018-11-04T11:02:31.397Z,99.99
2018-11-04T11:03:31.656Z,99.99
2018-11-04T11:04:31.394Z,99.99
2018-11-04T11:05:31.642Z,99.99
2018-11-04T11:06:31.372Z,99.99
2018-11-04T11:07:31.620Z,99.99
2018-11-04T11:08:31.608Z,99.99
2018-11-04T11:09:31.605Z,99.99
2018-11-04T11:10:31.590Z,99.99
2018-11-04T11:11:31.588Z,99.99
2018-11-04T11:12:31.575Z,99.99
2018-11-04T11:13:31.318Z,99.99
2018-11-04T11:14:31.558Z,99.99
2018-11-04T11:15:31.293Z,99.99
2018-11-04T11:16:31.284Z,99.99
2018-11-04T11:17:31.545Z,99.99
2018-11-04T11:18:31.269Z,99.99
2018-11-04T11:19:31.518Z,99.99
2018-11-04T11:20:31.510Z,99.99
2018-11-04T11:21:31.533Z,99.99
2018-11-04T11:22:31.329Z,99.99
2018-11-04T11:23:31.492Z,99.99
2018-11-04T11:24:31.486Z,99.99
2018-11-04T11:25:31.483Z,99.99
2018-11-04T11:26:31.206Z,99.99
2018-11-04T11:27:31.462Z,99.99
2018-11-04T11:28:31.187Z,99.99
2018-11-04T11:29:31.193Z,99.99
2018-11-04T11:30:31.432Z,99.99
2018-11-04T11:31:31.421Z,99.99
2018-11-04T11:32:31.415Z,99.99
2018-11-04T11:33:31.408Z,99.99
2018-11-04T11:34:31.400Z,99.99
2018-11-04T11:35:31.389Z,99.99
2018-11-04T11:36:31.123Z,99.99
2018-11-04T11:37:31.593Z,99.99
2018-11-04T11:38:31.366Z,99.99
2018-11-04T11:39:31.367Z,99.99
2018-11-04T11:40:31.349Z,99.99
2018-11-04T11:41:31.347Z,99.99
2018-11-04T11:42:31.335Z,99.99
2018-11-04T11:43:31.069Z,99.99
2018-11-04T11:44:31.317Z,99.99
2018-11-04T11:45:31.312Z,99.99
2018-11-04T11:46:31.303Z,99.99
2018-11-04T11:47:31.295Z,99.99
2018-11-04T11:48:31.288Z,99.99
2018-11-04T11:49:31.021Z,99.99
2018-11-04T11:50:31.269Z,99.99
2018-11-04T11:51:31.016Z,99.99
2018-11-04T11:52:31.055Z,99.99
2018-11-04T11:53:30.991Z,99.99
2018-11-04T11:54:31.237Z,99.99
2018-11-04T11:55:31.233Z,99.99
2018-11-04T11:56:31.232Z,99.99
2018-11-04T11:57:31.212Z,99.99
2018-11-04T11:58:31.208Z,99.99
2018-11-04T11:59:30.945Z,99.99
2018-11-04T12:00:30.935Z,99.99
2018-11-04T12:01:30.924Z,99.99
2018-11-04T12:02:31.176Z,99.99
2018-11-04T12:03:30.907Z,99.99
2018-11-04T12:04:31.157Z,99.99
2018-11-04T12:05:30.891Z,99.99
2018-11-04T12:06:31.144Z,99.99
2018-11-04T12:07:30.874Z,99.99
2018-11-04T12:08:30.867Z,99.99
2018-11-04T12:09:31.116Z,99.99
2018-11-04T12:10:31.108Z,99.99
2018-11-04T12:11:31.104Z,99.99
2018-11-04T12:12:31.091Z,99.99
2018-11-04T12:13:31.084Z,99.99
2018-11-04T12:14:31.076Z,99.99
2018-11-04T12:15:31.070Z,99.99
2018-11-04T12:16:30.802Z,99.99
2018-11-04T12:17:31.067Z,99.99
2018-11-04T12:18:31.044Z,99.99
2018-11-04T12:19:31.039Z,99.99
2018-11-04T12:20:30.774Z,99.99
2018-11-04T12:21:31.020Z,99.99
2018-11-04T12:22:31.007Z,99.99
2018-11-04T12:23:30.753Z,99.99
2018-11-04T12:24:30.993Z,99.99
2018-11-04T12:25:30.989Z,99.99
2018-11-04T12:26:30.975Z,99.99
2018-11-04T12:27:30.965Z,99.99
2018-11-04T12:28:30.703Z,99.99
2018-11-04T12:29:30.969Z,99.99
2018-11-04T12:30:30.942Z,99.99
2018-11-04T12:31:30.678Z,99.99
2018-11-04T12:32:31.139Z,99.99
2018-11-04T12:33:30.849Z,99.99
2018-11-04T12:34:30.801Z,99.99
2018-11-04T12:35:30.731Z,99.99
2018-11-04T12:36:30.641Z,99.99
2018-11-04T12:37:30.639Z,99.99
2018-11-04T12:38:30.880Z,99.99
2018-11-04T12:39:30.869Z,99.99
2018-11-04T12:40:30.873Z,99.99
2018-11-04T12:41:30.872Z,99.99
2018-11-04T12:42:30.842Z,99.99
2018-11-04T12:43:30.836Z,99.99
2018-11-04T12:44:30.568Z,99.99
2018-11-04T12:45:30.566Z,99.99
2018-11-04T12:46:30.550Z,99.99
2018-11-04T12:47:30.807Z,99.99
2018-11-04T12:48:30.796Z,99.99
2018-11-04T12:49:30.528Z,99.99
2018-11-04T12:50:30.782Z,99.99
2018-11-04T12:51:30.511Z,99.99
2018-11-04T12:52:30.761Z,99.99
2018-11-04T12:53:30.492Z,99.99
2018-11-04T12:54:30.488Z,99.99
2018-11-04T12:55:30.735Z,99.99